createdAt,value
2019-04-20T00:01:26.242Z,8.15
2019-04-20T00:03:51.921Z,6.78
2019-04-20T00:06:21.497Z,5.87
2019-04-20T00:08:56.799Z,6.28
2019-04-20T00:11:27.533Z,5.58
2019-04-20T00:14:01.347Z,6.67
2019-04-20T00:16:22.966Z,6.85
2019-04-20T00:18:56.633Z,6.40
2019-04-20T00:21:42.768Z,5.47
2019-04-20T00:24:18.051Z,5.97
2019-04-20T00:27:09.242Z,6.62
2019-04-20T00:29:30.982Z,5.17
2019-04-20T00:31:56.658Z,6.20
2019-04-20T00:34:38.900Z,5.35
2019-04-20T00:37:05.790Z,6.72
2019-04-20T00:39:36.120Z,6.17
2019-04-20T00:42:09.715Z,5.55
2019-04-20T00:44:39.101Z,6.12
2019-04-20T00:47:15.580Z,5.95
2019-04-20T00:49:48.417Z,5.85
2019-04-20T00:54:37.138Z,6.92
2019-04-20T00:57:20.304Z,6.28
2019-04-20T00:59:59.278Z,5.08
2019-04-20T01:02:21.037Z,5.47
2019-04-20T01:04:57.851Z,6.20
2019-04-20T01:07:27.425Z,6.00
2019-04-20T01:10:09.294Z,6.08
2019-04-20T01:12:40.445Z,6.00
2019-04-20T01:15:11.812Z,6.87
2019-04-20T01:17:41.548Z,6.62
2019-04-20T01:20:10.004Z,6.08
2019-04-20T01:22:44.340Z,6.05
2019-04-20T01:25:17.134Z,6.15
2019-04-20T01:28:01.077Z,6.35
2019-04-20T01:30:18.654Z,6.70
2019-04-20T01:32:57.571Z,6.05
2019-04-20T01:35:30.426Z,5.80
2019-04-20T01:38:00.270Z,6.10
2019-04-20T01:40:14.734Z,6.25
2019-04-20T01:42:44.555Z,6.37
2019-04-20T01:45:19.858Z,6.40
2019-04-20T01:47:48.865Z,6.42
2019-04-20T01:50:20.948Z,6.28
2019-04-20T01:52:56.484Z,6.67
2019-04-20T01:55:41.475Z,6.80
2019-04-20T01:58:37.638Z,6.25
2019-04-20T02:00:57.257Z,7.42
2019-04-20T02:03:38.457Z,6.37
2019-04-20T02:06:10.054Z,6.17
2019-04-20T02:08:35.818Z,6.67
2019-04-20T02:11:07.561Z,8.28
2019-04-20T02:13:42.150Z,6.72
2019-04-20T02:16:16.920Z,6.30
2019-04-20T02:18:44.108Z,7.12
2019-04-20T02:21:24.762Z,8.88
2019-04-20T02:23:46.197Z,8.00
2019-04-20T02:26:07.188Z,6.45
2019-04-20T02:29:00.746Z,6.95
2019-04-20T02:34:24.144Z,6.62
2019-04-20T02:36:58.864Z,6.78
2019-04-20T02:47:04.658Z,6.95
2019-04-20T02:49:35.928Z,7.50
2019-04-20T02:54:26.016Z,6.95
2019-04-20T02:57:05.326Z,7.08
2019-04-20T02:59:53.770Z,7.85
2019-04-20T03:01:45.429Z,7.03
2019-04-20T03:04:01.438Z,8.18
2019-04-20T03:06:39.811Z,7.00
2019-04-20T03:09:20.141Z,6.20
2019-04-20T03:11:59.681Z,8.65
2019-04-20T03:14:13.880Z,7.20
2019-04-20T03:16:43.690Z,6.53
2019-04-20T03:19:17.388Z,7.08
2019-04-20T03:21:51.339Z,8.45
2019-04-20T03:24:26.810Z,7.08
2019-04-20T03:26:54.650Z,7.22
2019-04-20T03:29:47.062Z,6.62
2019-04-20T03:32:52.858Z,6.47
2019-04-20T03:37:26.684Z,8.15
2019-04-20T03:39:41.683Z,7.05
2019-04-20T03:42:00.242Z,6.92
2019-04-20T03:44:32.159Z,6.95
2019-04-20T03:47:04.569Z,7.97
2019-04-20T03:49:54.829Z,8.03
2019-04-20T03:52:31.070Z,7.22
2019-04-20T03:54:57.375Z,8.00
2019-04-20T03:57:49.754Z,7.25
2019-04-20T04:00:27.523Z,9.20
2019-04-20T04:03:12.906Z,7.05
2019-04-20T04:06:00.883Z,6.22
2019-04-20T04:08:25.588Z,6.97
2019-04-20T04:11:10.897Z,6.55
2019-04-20T04:13:18.733Z,7.03
2019-04-20T04:15:56.797Z,7.47
2019-04-20T04:18:26.042Z,7.07
2019-04-20T04:20:57.408Z,8.93
2019-04-20T04:23:36.586Z,6.92
2019-04-20T04:26:08.581Z,7.25
2019-04-20T04:28:35.130Z,7.47
2019-04-20T04:31:12.210Z,7.42
2019-04-20T04:36:10.140Z,7.37
2019-04-20T04:38:57.175Z,6.53
2019-04-20T04:41:18.249Z,7.50
2019-04-20T04:43:48.334Z,7.20
2019-04-20T04:45:55.509Z,7.47
2019-04-20T04:48:29.907Z,6.87
2019-04-20T04:51:02.491Z,7.00
2019-04-20T04:53:40.695Z,7.12
2019-04-20T04:56:03.043Z,6.87
2019-04-20T04:58:26.117Z,6.87
2019-04-20T05:01:01.348Z,7.10
2019-04-20T05:03:45.397Z,7.62
2019-04-20T05:06:18.745Z,7.50
2019-04-20T05:08:39.623Z,8.13
2019-04-20T05:11:02.881Z,9.63
2019-04-20T05:13:37.998Z,7.83
2019-04-20T05:16:16.772Z,7.25
2019-04-20T05:18:57.835Z,7.33
2019-04-20T05:21:25.398Z,7.40
2019-04-20T05:24:04.495Z,7.00
2019-04-20T05:26:51.005Z,7.03
2019-04-20T05:29:06.739Z,6.67
2019-04-20T05:31:36.365Z,7.70
2019-04-20T05:34:20.427Z,6.90
2019-04-20T05:36:52.592Z,8.65
2019-04-20T05:39:29.820Z,7.72
2019-04-20T05:41:48.614Z,8.58
2019-04-20T05:44:25.798Z,7.23
2019-04-20T05:47:06.906Z,10.68
2019-04-20T05:49:40.261Z,7.08
2019-04-20T05:52:20.216Z,7.12
2019-04-20T05:54:39.074Z,8.10
2019-04-20T05:57:19.906Z,8.28
2019-04-20T05:59:40.897Z,7.75
2019-04-20T06:02:10.000Z,7.90
2019-04-20T06:07:30.927Z,7.08
2019-04-20T06:10:06.179Z,11.75
2019-04-20T06:15:12.383Z,8.43
2019-04-20T06:17:58.362Z,10.23
2019-04-20T06:20:39.207Z,16.90
2019-04-20T06:23:24.545Z,14.98
2019-04-20T06:26:03.857Z,19.05
2019-04-20T06:28:24.572Z,13.83
2019-04-20T06:30:51.145Z,12.40
2019-04-20T06:36:43.104Z,9.83
2019-04-20T06:39:13.367Z,10.95
2019-04-20T06:41:54.272Z,14.87
2019-04-20T06:44:08.560Z,8.43
2019-04-20T06:46:45.343Z,10.05
2019-04-20T06:49:16.976Z,9.13
2019-04-20T06:51:47.479Z,17.02
2019-04-20T06:54:15.828Z,14.13
2019-04-20T06:56:54.071Z,10.80
2019-04-20T06:59:32.382Z,16.48
2019-04-20T07:02:04.030Z,10.50
2019-04-20T07:07:18.523Z,13.98
2019-04-20T07:12:05.473Z,12.10
2019-04-20T07:14:28.868Z,17.67
2019-04-20T07:17:24.443Z,8.53
2019-04-20T07:19:51.758Z,15.00
2019-04-20T07:22:38.916Z,9.85
2019-04-20T07:27:35.514Z,11.30
2019-04-20T07:30:09.444Z,11.53
2019-04-20T07:32:44.110Z,10.03
2019-04-20T07:35:09.832Z,11.75
2019-04-20T07:38:13.498Z,14.65
2019-04-20T07:40:20.634Z,12.88
2019-04-20T07:42:51.857Z,12.28
2019-04-20T07:45:26.202Z,13.00
2019-04-20T07:47:52.684Z,12.43
2019-04-20T07:50:17.457Z,15.48
2019-04-20T07:52:45.078Z,14.07
2019-04-20T07:57:52.606Z,12.60
2019-04-20T08:00:38.247Z,12.25
2019-04-20T08:03:22.255Z,12.45
2019-04-20T08:05:59.587Z,16.12
2019-04-20T08:08:35.209Z,13.65
2019-04-20T08:11:10.340Z,11.45
2019-04-20T08:13:45.701Z,13.88
2019-04-20T08:16:20.337Z,18.05
2019-04-20T08:18:44.576Z,10.38
2019-04-20T08:21:19.135Z,10.43
2019-04-20T08:23:45.898Z,14.73
2019-04-20T08:26:05.696Z,11.53
2019-04-20T08:28:42.357Z,11.97
2019-04-20T08:31:32.466Z,11.88
2019-04-20T08:34:18.598Z,12.90
2019-04-20T08:37:08.496Z,10.38
2019-04-20T08:39:51.206Z,9.45
2019-04-20T08:42:14.625Z,9.03
2019-04-20T08:47:27.663Z,13.85
2019-04-20T08:50:17.265Z,14.45
2019-04-20T08:53:03.883Z,13.00
2019-04-20T08:55:10.624Z,13.90
2019-04-20T08:57:25.044Z,14.33
2019-04-20T09:00:18.304Z,13.58
2019-04-20T09:02:48.919Z,14.58
2019-04-20T09:05:32.932Z,14.10
2019-04-20T09:10:46.791Z,16.77
2019-04-20T09:13:05.754Z,25.80
2019-04-20T09:15:23.352Z,13.68
2019-04-20T09:18:25.104Z,13.50
2019-04-20T09:20:56.034Z,17.40
2019-04-20T09:23:36.804Z,13.35
2019-04-20T09:26:27.039Z,18.40
2019-04-20T09:29:13.944Z,18.12
2019-04-20T09:31:39.309Z,17.05
2019-04-20T09:34:26.011Z,15.10
2019-04-20T09:37:21.967Z,12.07
2019-04-20T09:39:53.292Z,12.63
2019-04-20T09:42:34.898Z,14.28
2019-04-20T09:45:06.203Z,15.25
2019-04-20T09:47:45.015Z,13.65
2019-04-20T09:50:29.207Z,11.83
2019-04-20T09:52:57.051Z,11.03
2019-04-20T09:55:24.616Z,12.05
2019-04-20T10:00:28.936Z,13.85
2019-04-20T10:02:46.391Z,11.73
2019-04-20T10:05:15.653Z,12.03
2019-04-20T10:07:49.325Z,10.18
2019-04-20T10:10:26.063Z,13.70
2019-04-20T10:12:45.687Z,13.28
2019-04-20T10:15:19.982Z,13.55
2019-04-20T10:17:49.929Z,12.35
2019-04-20T10:20:27.000Z,15.80
2019-04-20T10:22:50.789Z,11.50
2019-04-20T10:25:22.583Z,10.13
2019-04-20T10:27:51.633Z,13.05
2019-04-20T10:30:20.794Z,19.45
2019-04-20T10:32:53.456Z,13.40
2019-04-20T10:35:21.074Z,10.43
2019-04-20T10:37:54.063Z,8.75
2019-04-20T10:40:37.810Z,13.68
2019-04-20T10:42:53.450Z,11.22
2019-04-20T10:45:22.969Z,13.60
2019-04-20T10:47:54.997Z,10.30
2019-04-20T10:50:25.084Z,13.55
2019-04-20T10:52:54.115Z,13.40
2019-04-20T10:55:22.995Z,9.28
2019-04-20T10:57:53.322Z,9.40
2019-04-20T11:00:41.951Z,9.70
2019-04-20T11:03:11.491Z,11.40
2019-04-20T11:05:42.330Z,11.50
2019-04-20T11:08:12.764Z,9.28
2019-04-20T11:10:55.713Z,9.70
2019-04-20T11:13:12.370Z,12.57
2019-04-20T11:15:42.240Z,7.78
2019-04-20T11:18:11.368Z,8.53
2019-04-20T11:20:41.473Z,8.60
2019-04-20T11:23:29.675Z,7.17
2019-04-20T11:25:58.476Z,8.65
2019-04-20T11:28:28.168Z,8.20
2019-04-20T11:30:58.521Z,8.68
2019-04-20T11:33:28.049Z,9.78
2019-04-20T11:35:57.447Z,7.35
2019-04-20T11:38:28.089Z,8.05
2019-04-20T11:41:07.347Z,6.47
2019-04-20T11:43:29.299Z,7.42
2019-04-20T11:45:58.659Z,8.18
2019-04-20T11:48:27.655Z,7.30
2019-04-20T11:50:57.917Z,5.72
2019-04-20T11:53:28.635Z,6.70
2019-04-20T11:55:58.489Z,6.45
2019-04-20T11:58:27.999Z,7.20
2019-04-20T12:01:06.251Z,5.58
2019-04-20T12:03:41.731Z,6.33
2019-04-20T12:06:04.990Z,5.28
2019-04-20T12:08:32.698Z,4.83
2019-04-20T12:11:18.855Z,8.85
2019-04-20T12:13:34.405Z,5.47
2019-04-20T12:16:03.593Z,10.53
2019-04-20T12:18:33.694Z,6.85
2019-04-20T12:21:23.132Z,7.00
2019-04-20T12:23:52.155Z,7.78
2019-04-20T12:26:20.955Z,6.20
2019-04-20T12:28:49.875Z,6.37
2019-04-20T12:31:22.815Z,7.50
2019-04-20T12:33:50.482Z,9.38
2019-04-20T12:36:20.529Z,6.83
2019-04-20T12:38:50.901Z,6.03
2019-04-20T12:41:31.139Z,6.30
2019-04-20T12:43:50.323Z,6.80
2019-04-20T12:46:21.465Z,7.90
2019-04-20T12:48:51.439Z,7.08
2019-04-20T12:51:25.187Z,8.70
2019-04-20T12:53:50.892Z,10.18
2019-04-20T12:56:20.323Z,8.30
2019-04-20T12:58:49.503Z,9.48
2019-04-20T13:01:21.086Z,9.43
2019-04-20T13:03:49.855Z,9.68
2019-04-20T13:06:19.607Z,10.15
2019-04-20T13:08:52.306Z,8.43
2019-04-20T13:11:26.764Z,9.47
2019-04-20T13:14:30.879Z,12.25
2019-04-20T13:16:59.909Z,12.10
2019-04-20T13:19:29.080Z,8.70
2019-04-20T13:21:58.988Z,11.73
2019-04-20T13:24:29.161Z,9.48
2019-04-20T13:26:58.669Z,10.60
2019-04-20T13:29:28.906Z,8.73
2019-04-20T13:31:58.483Z,7.60
2019-04-20T13:34:28.482Z,8.60
2019-04-20T13:36:58.146Z,8.98
2019-04-20T13:39:27.115Z,7.47
2019-04-20T13:42:03.491Z,9.03
2019-04-20T13:44:27.236Z,8.03
2019-04-20T13:46:56.777Z,9.30
2019-04-20T13:49:27.038Z,13.38
2019-04-20T13:51:57.070Z,7.15
2019-04-20T13:54:28.001Z,6.40
2019-04-20T13:56:57.499Z,8.90
2019-04-20T13:59:35.187Z,8.55
2019-04-20T14:02:29.088Z,5.62
2019-04-20T14:04:59.794Z,5.78
2019-04-20T14:07:29.250Z,5.73
2019-04-20T14:09:59.407Z,8.13
2019-04-20T14:12:35.130Z,5.92
2019-04-20T14:14:59.472Z,6.37
2019-04-20T14:17:29.000Z,8.38
2019-04-20T14:20:00.262Z,7.70
2019-04-20T14:22:29.283Z,7.72
2019-04-20T14:24:58.315Z,6.62
2019-04-20T14:27:27.223Z,6.97
2019-04-20T14:29:57.647Z,5.75
2019-04-20T14:32:27.117Z,5.45
2019-04-20T14:34:56.799Z,5.17
2019-04-20T14:37:28.698Z,6.67
2019-04-20T14:39:58.506Z,4.15
2019-04-20T14:42:36.430Z,6.75
2019-04-20T14:44:57.948Z,8.73
2019-04-20T14:47:27.879Z,6.42
2019-04-20T14:50:00.831Z,4.90
2019-04-20T14:52:27.479Z,7.90
2019-04-20T14:54:57.579Z,5.95
2019-04-20T14:57:27.342Z,7.10
2019-04-20T15:00:01.292Z,6.65
2019-04-20T15:02:32.118Z,5.53
2019-04-20T15:05:01.417Z,4.25
2019-04-20T15:07:30.891Z,4.50
2019-04-20T15:10:00.783Z,8.00
2019-04-20T15:12:38.986Z,8.95
2019-04-20T15:15:00.764Z,7.15
2019-04-20T15:17:35.359Z,6.33
2019-04-20T15:20:11.971Z,7.10
2019-04-20T15:22:45.424Z,6.05
2019-04-20T15:25:15.755Z,6.75
2019-04-20T15:27:46.233Z,9.63
2019-04-20T15:30:16.325Z,11.00
2019-04-20T15:32:45.247Z,16.45
2019-04-20T15:35:17.827Z,12.43
2019-04-20T15:37:45.073Z,8.43
2019-04-20T15:40:15.097Z,9.63
2019-04-20T15:42:56.607Z,10.00
2019-04-20T15:45:15.669Z,10.75
2019-04-20T15:47:45.886Z,17.07
2019-04-20T15:50:15.955Z,14.20
2019-04-20T15:52:52.198Z,12.65
2019-04-20T15:55:22.653Z,8.90
2019-04-20T15:57:46.232Z,9.30
2019-04-20T16:00:16.224Z,11.22
2019-04-20T16:02:59.123Z,9.08
2019-04-20T16:05:53.492Z,11.97
2019-04-20T16:08:48.246Z,8.88
2019-04-20T16:11:17.510Z,22.37
2019-04-20T16:13:50.422Z,23.45
2019-04-20T16:16:16.850Z,16.70
2019-04-20T16:19:12.764Z,20.15
2019-04-20T16:21:37.380Z,14.60
2019-04-20T16:24:13.038Z,19.23
2019-04-20T16:26:49.721Z,11.83
2019-04-20T16:29:19.787Z,15.95
2019-04-20T16:31:50.292Z,10.08
2019-04-20T16:34:19.323Z,11.85
2019-04-20T16:36:50.134Z,13.43
2019-04-20T16:39:20.525Z,11.75
2019-04-20T16:41:50.366Z,10.78
2019-04-20T16:44:20.956Z,7.92
2019-04-20T16:46:50.238Z,10.30
2019-04-20T16:49:19.518Z,10.30
2019-04-20T16:51:49.346Z,13.00
2019-04-20T16:54:19.501Z,11.28
2019-04-20T16:56:48.671Z,7.85
2019-04-20T16:59:19.285Z,14.20
2019-04-20T17:01:48.508Z,13.58
2019-04-20T17:04:22.068Z,8.68
2019-04-20T17:07:08.121Z,10.78
2019-04-20T17:09:37.789Z,11.43
2019-04-20T17:12:07.805Z,9.38
2019-04-20T17:14:37.747Z,14.75
2019-04-20T17:17:07.370Z,11.95
2019-04-20T17:19:37.393Z,9.93
2019-04-20T17:22:07.549Z,10.30
2019-04-20T17:24:37.725Z,13.13
2019-04-20T17:27:19.583Z,13.15
2019-04-20T17:30:15.159Z,9.25
2019-04-20T17:32:43.788Z,10.93
2019-04-20T17:35:20.877Z,10.93
2019-04-20T17:37:46.309Z,11.15
2019-04-20T17:40:35.500Z,14.10
2019-04-20T17:42:56.825Z,11.68
2019-04-20T17:45:28.253Z,15.65
2019-04-20T17:48:07.265Z,9.80
2019-04-20T17:50:42.879Z,11.12
2019-04-20T17:53:07.420Z,12.60
2019-04-20T17:55:37.870Z,12.03
2019-04-20T17:58:01.573Z,12.10
2019-04-20T18:00:45.250Z,10.23
2019-04-20T18:03:30.678Z,10.35
2019-04-20T18:06:08.356Z,9.55
2019-04-20T18:08:35.810Z,11.35
2019-04-20T18:11:03.034Z,10.03
2019-04-20T18:13:25.943Z,9.35
2019-04-20T18:16:17.023Z,9.48
2019-04-20T18:18:52.837Z,12.37
2019-04-20T18:21:32.995Z,9.95
2019-04-20T18:24:05.200Z,12.73
2019-04-20T18:26:52.015Z,12.03
2019-04-20T18:29:23.555Z,13.93
2019-04-20T18:31:43.739Z,11.12
2019-04-20T18:34:24.011Z,17.37
2019-04-20T18:36:52.756Z,21.42
2019-04-20T18:39:29.081Z,12.70
2019-04-20T18:41:57.561Z,13.78
2019-04-20T18:44:30.528Z,16.20
2019-04-20T18:47:27.743Z,14.05
2019-04-20T18:49:36.904Z,12.90
2019-04-20T18:51:55.634Z,9.88
2019-04-20T18:54:28.686Z,10.10
2019-04-20T18:56:56.470Z,7.75
2019-04-20T18:59:31.750Z,9.05
2019-04-20T19:01:57.126Z,9.13
2019-04-20T19:04:26.168Z,10.78
2019-04-20T19:06:56.217Z,9.58
2019-04-20T19:09:30.131Z,10.35
2019-04-20T19:12:02.845Z,11.95
2019-04-20T19:15:02.427Z,9.43
2019-04-20T19:17:58.136Z,10.10
2019-04-20T19:20:23.799Z,12.03
2019-04-20T19:22:52.333Z,12.85
2019-04-20T19:25:27.134Z,10.88
2019-04-20T19:27:55.629Z,11.30
2019-04-20T19:30:34.253Z,14.60
2019-04-20T19:33:11.649Z,7.70
2019-04-20T19:35:33.887Z,9.55
2019-04-20T19:38:06.816Z,11.15
2019-04-20T19:40:38.559Z,8.98
2019-04-20T19:43:08.573Z,9.63
2019-04-20T19:45:46.419Z,12.63
2019-04-20T19:48:12.147Z,10.72
2019-04-20T19:50:51.848Z,11.28
2019-04-20T19:53:22.752Z,11.08
2019-04-20T19:55:43.892Z,13.00
2019-04-20T19:58:11.450Z,7.22
2019-04-20T20:01:02.575Z,10.75
2019-04-20T20:03:31.162Z,9.03
2019-04-20T20:06:01.402Z,7.35
2019-04-20T20:08:34.572Z,10.20
2019-04-20T20:11:03.001Z,9.35
2019-04-20T20:13:41.053Z,8.03
2019-04-20T20:18:46.602Z,7.45
2019-04-20T20:21:17.431Z,5.65
2019-04-20T20:23:36.186Z,11.40
2019-04-20T20:26:07.234Z,11.88
2019-04-20T20:28:43.687Z,6.97
2019-04-20T20:31:16.825Z,10.50
2019-04-20T20:33:49.419Z,10.98
2019-04-20T20:36:12.660Z,9.95
2019-04-20T20:38:43.674Z,8.30
2019-04-20T20:41:19.828Z,7.83
2019-04-20T20:43:53.887Z,9.98
2019-04-20T20:46:25.218Z,9.93
2019-04-20T20:49:04.926Z,6.67
2019-04-20T20:51:39.314Z,9.20
2019-04-20T20:53:54.101Z,9.83
2019-04-20T20:56:22.523Z,7.90
2019-04-20T20:58:57.314Z,7.83
2019-04-20T21:01:22.215Z,7.30
2019-04-20T21:03:51.049Z,8.85
2019-04-20T21:06:20.083Z,10.90
2019-04-20T21:08:52.349Z,7.07
2019-04-20T21:11:23.711Z,7.95
2019-04-20T21:13:51.846Z,6.50
2019-04-20T21:16:25.339Z,6.00
2019-04-20T21:19:07.820Z,8.28
2019-04-20T21:21:37.357Z,9.25
2019-04-20T21:24:03.147Z,5.87
2019-04-20T21:26:35.061Z,5.95
2019-04-20T21:28:59.608Z,5.53
2019-04-20T21:31:29.708Z,7.12
2019-04-20T21:34:01.727Z,6.50
2019-04-20T21:36:31.767Z,7.75
2019-04-20T21:39:01.531Z,7.50
2019-04-20T21:41:31.351Z,6.25
2019-04-20T21:44:01.147Z,6.92
2019-04-20T21:46:39.890Z,8.53
2019-04-20T21:49:13.846Z,6.28
2019-04-20T21:51:42.742Z,7.20
2019-04-20T21:54:03.734Z,6.65
2019-04-20T21:56:33.546Z,9.05
2019-04-20T21:59:04.373Z,7.72
2019-04-20T22:01:39.735Z,7.50
2019-04-20T22:04:06.102Z,8.05
2019-04-20T22:06:36.225Z,8.60
2019-04-20T22:09:09.085Z,7.22
2019-04-20T22:11:38.195Z,8.43
2019-04-20T22:14:12.971Z,6.58
2019-04-20T22:16:42.636Z,6.40
2019-04-20T22:19:22.761Z,6.15
2019-04-20T22:21:50.619Z,6.67
2019-04-20T22:24:25.315Z,8.20
2019-04-20T22:26:50.246Z,7.30
2019-04-20T22:29:10.147Z,7.20
2019-04-20T22:31:40.241Z,6.67
2019-04-20T22:34:16.879Z,9.98
2019-04-20T22:36:43.895Z,6.40
2019-04-20T22:39:24.494Z,8.55
2019-04-20T22:41:58.632Z,4.72
2019-04-20T22:44:24.988Z,6.00
2019-04-20T22:46:52.509Z,6.73
2019-04-20T22:49:36.351Z,7.20
2019-04-20T22:52:00.703Z,6.95
2019-04-20T22:54:36.418Z,7.40
2019-04-20T22:57:03.352Z,6.35
2019-04-20T22:59:35.321Z,5.20
2019-04-20T23:01:58.879Z,5.50
2019-04-20T23:04:24.746Z,5.47
2019-04-20T23:06:55.837Z,7.80
2019-04-20T23:09:24.836Z,8.68
2019-04-20T23:12:03.578Z,5.78
2019-04-20T23:14:26.583Z,4.90
2019-04-20T23:16:57.373Z,6.00
2019-04-20T23:19:34.471Z,4.35
2019-04-20T23:22:01.254Z,5.65
2019-04-20T23:24:27.102Z,7.28
2019-04-20T23:26:57.279Z,6.40
2019-04-20T23:29:30.838Z,4.92
2019-04-20T23:32:01.384Z,5.40
2019-04-20T23:34:30.976Z,4.42
2019-04-20T23:36:58.858Z,6.47
2019-04-20T23:39:30.122Z,5.10
2019-04-20T23:42:02.428Z,6.22
2019-04-20T23:44:40.054Z,5.40
2019-04-20T23:47:25.510Z,6.67
2019-04-20T23:50:17.611Z,6.22
2019-04-20T23:52:49.148Z,5.95
2019-04-20T23:55:04.965Z,6.10
2019-04-20T23:57:31.518Z,5.95
